Time;durP1;ratioP1;P1;durP2;ratioP2;P2;SDS_P1;SDS_P2;PMS_P1;PMS_P2;Temp;Humidity;BMP_temperature;BMP_pressure;BME280_temperature;BME280_humidity;BME280_pressure;Samples;Min_cycle;Max_cycle;Signal;HPM_P1;HPM_P2
2022/08/11 00:00:11;;;;;;;;;;;25.70;32.50;;;;;;1574536;74;1528;-67
2022/08/11 00:02:12;;;;;;;;;;;25.80;32.50;;;;;;1576171;74;729;-69
2022/08/11 00:04:15;;;;;;;;;;;25.70;32.50;;;;;;1573304;74;1740;-68
2022/08/11 00:06:18;;;;;;;;;;;25.70;32.50;;;;;;1577159;74;777;-67
2022/08/11 00:08:24;;;;;;;;;;;25.70;32.50;;;;;;1573007;74;1930;-68
2022/08/11 00:10:27;;;;;;;;;;;25.70;32.40;;;;;;1575508;75;1118;-67
2022/08/11 00:12:29;;;;;;;;;;;25.70;32.40;;;;;;1573231;74;716;-67
2022/08/11 00:14:32;;;;;;;;;;;25.70;32.40;;;;;;1576221;75;711;-67
2022/08/11 00:16:34;;;;;;;;;;;25.80;32.40;;;;;;1572771;74;1368;-67
2022/08/11 00:18:40;;;;;;;;;;;25.70;32.50;;;;;;1576242;74;714;-68
2022/08/11 00:20:42;;;;;;;;;;;25.70;32.50;;;;;;1573527;74;1145;-69
2022/08/11 00:22:44;;;;;;;;;;;25.70;32.40;;;;;;1575921;75;777;-67
2022/08/11 00:24:46;;;;;;;;;;;25.70;32.50;;;;;;1576211;74;746;-67
2022/08/11 00:26:50;;;;;;;;;;;25.70;32.50;;;;;;1575456;74;602;-68
2022/08/11 00:28:51;;;;;;;;;;;25.70;32.40;;;;;;1575172;74;1927;-67
2022/08/11 00:30:53;;;;;;;;;;;25.70;32.50;;;;;;1575067;74;1607;-67
2022/08/11 00:32:57;;;;;;;;;;;25.70;32.50;;;;;;1576237;74;676;-69
2022/08/11 00:34:59;;;;;;;;;;;25.70;32.40;;;;;;1574170;74;639;-69
2022/08/11 00:37:02;;;;;;;;;;;25.70;32.50;;;;;;1574662;75;742;-69
2022/08/11 00:39:05;;;;;;;;;;;25.70;32.50;;;;;;1575877;74;798;-68
2022/08/11 00:41:14;;;;;;;;;;;25.70;32.40;;;;;;1575601;75;1074;-69
2022/08/11 00:43:18;;;;;;;;;;;25.70;32.40;;;;;;1573895;74;692;-67
2022/08/11 00:45:22;;;;;;;;;;;25.70;32.40;;;;;;1569531;74;1829;-66
2022/08/11 00:47:34;;;;;;;;;;;25.70;32.40;;;;;;1576207;74;721;-70
2022/08/11 00:49:46;;;;;;;;;;;25.70;32.40;;;;;;1574943;74;1947;-66
2022/08/11 00:52:06;;;;;;;;;;;25.60;32.40;;;;;;1570799;75;1782;-70
2022/08/11 00:54:10;;;;;;;;;;;25.70;32.50;;;;;;1575342;74;798;-66
2022/08/11 00:56:28;;;;;;;;;;;25.60;32.50;;;;;;1572988;74;1747;-67
2022/08/11 00:58:35;;;;;;;;;;;25.70;32.50;;;;;;1576575;74;768;-68
2022/08/11 01:00:55;;;;;;;;;;;25.60;32.50;;;;;;1575139;74;1134;-67
2022/08/11 01:03:16;;;;;;;;;;;25.70;32.50;;;;;;1566044;75;662;-67
2022/08/11 01:05:37;;;;;;;;;;;25.70;32.40;;;;;;1574504;74;851;-68
2022/08/11 01:07:46;;;;;;;;;;;25.70;32.50;;;;;;1574042;74;737;-67
2022/08/11 01:09:53;;;;;;;;;;;25.60;32.50;;;;;;1574759;74;2061;-68
2022/08/11 01:12:13;;;;;;;;;;;25.60;32.50;;;;;;1576194;74;802;-68
2022/08/11 01:14:16;;;;;;;;;;;25.60;32.50;;;;;;1576493;74;1591;-68
2022/08/11 01:16:20;;;;;;;;;;;25.60;32.50;;;;;;1574693;74;1810;-69
2022/08/11 01:18:26;;;;;;;;;;;25.60;32.60;;;;;;1574281;74;1764;-67
2022/08/11 01:20:45;;;;;;;;;;;25.60;32.60;;;;;;1573606;74;1392;-66
2022/08/11 01:22:48;;;;;;;;;;;25.50;32.50;;;;;;1572949;74;692;-67
2022/08/11 01:25:04;;;;;;;;;;;25.60;32.50;;;;;;1561437;74;1687;-65
2022/08/11 01:27:23;;;;;;;;;;;25.50;32.50;;;;;;1576063;74;1313;-67
2022/08/11 01:29:42;;;;;;;;;;;25.60;32.60;;;;;;1570569;74;1914;-68
2022/08/11 01:31:54;;;;;;;;;;;25.50;32.60;;;;;;1576463;75;691;-69
2022/08/11 01:34:10;;;;;;;;;;;25.50;32.60;;;;;;1574415;74;702;-69
2022/08/11 01:36:30;;;;;;;;;;;25.50;32.60;;;;;;1575248;75;721;-66
2022/08/11 01:38:42;;;;;;;;;;;25.50;32.60;;;;;;1576452;74;791;-67
2022/08/11 01:40:52;;;;;;;;;;;25.60;32.60;;;;;;1572202;74;1813;-69
2022/08/11 01:45:20;;;;;;;;;;;25.50;32.70;;;;;;1570834;74;1632;-68
2022/08/11 01:47:51;;;;;;;;;;;25.50;32.60;;;;;;1576044;74;757;-68
2022/08/11 01:49:57;;;;;;;;;;;25.60;32.60;;;;;;1575061;74;1922;-66
2022/08/11 01:52:13;;;;;;;;;;;25.50;32.70;;;;;;1573835;74;954;-67
2022/08/11 01:54:22;;;;;;;;;;;25.60;32.70;;;;;;1568646;74;1854;-67
2022/08/11 01:56:42;;;;;;;;;;;25.60;32.60;;;;;;1572948;74;1700;-68
2022/08/11 01:58:45;;;;;;;;;;;25.60;32.70;;;;;;1580912;74;849;-70
2022/08/11 02:00:52;;;;;;;;;;;25.50;32.70;;;;;;1568749;74;1284;-69
2022/08/11 02:03:14;;;;;;;;;;;25.60;32.70;;;;;;1574061;75;1920;-70
2022/08/11 02:05:20;;;;;;;;;;;25.50;32.70;;;;;;1575135;74;1999;-69
2022/08/11 02:07:25;;;;;;;;;;;25.60;32.70;;;;;;1574759;74;1064;-70
2022/08/11 02:09:31;;;;;;;;;;;25.60;32.70;;;;;;1575163;75;1914;-70
2022/08/11 02:11:33;;;;;;;;;;;25.60;32.70;;;;;;1528285;72;230311;-68
2022/08/11 02:13:50;;;;;;;;;;;25.50;32.60;;;;;;1513677;77;743;-68
2022/08/11 02:15:56;;;;;;;;;;;25.60;32.70;;;;;;1518016;77;1996;-68
2022/08/11 02:18:11;;;;;;;;;;;25.60;32.70;;;;;;1531669;77;860;-69
2022/08/11 02:25:09;;;;;;;;;;;25.50;32.70;;;;;;1493079;78;1655;-68
2022/08/11 02:27:15;;;;;;;;;;;25.50;32.80;;;;;;1506376;78;784;-68
2022/08/11 02:29:31;;;;;;;;;;;25.50;32.80;;;;;;1508935;78;1938;-70
2022/08/11 02:33:56;;;;;;;;;;;25.50;32.90;;;;;;1505323;78;1669;-68
2022/08/11 02:36:07;;;;;;;;;;;25.50;33.00;;;;;;1497345;78;1704;-68
2022/08/11 02:38:23;;;;;;;;;;;25.60;32.90;;;;;;1502267;78;1465;-68
2022/08/11 02:40:34;;;;;;;;;;;25.50;32.90;;;;;;1489707;78;1243;-68
2022/08/11 02:42:46;;;;;;;;;;;25.60;32.90;;;;;;1490530;78;1094;-68
2022/08/11 02:44:53;;;;;;;;;;;25.60;32.90;;;;;;1513336;77;739;-68
2022/08/11 02:47:08;;;;;;;;;;;25.60;32.90;;;;;;1499791;78;649;-68
2022/08/11 02:51:33;;;;;;;;;;;25.60;32.90;;;;;;1507169;77;1696;-68
2022/08/11 02:53:37;;;;;;;;;;;25.70;33.00;;;;;;1481608;79;696;-67
2022/08/11 02:55:59;;;;;;;;;;;25.70;32.90;;;;;;1488931;78;859;-68
2022/08/11 02:58:02;;;;;;;;;;;25.70;33.00;;;;;;1479477;78;730;-69
2022/08/11 03:00:08;;;;;;;;;;;25.70;33.10;;;;;;1508999;77;1840;-68
2022/08/11 03:02:12;;;;;;;;;;;25.70;33.00;;;;;;1487094;79;1098;-68
2022/08/11 03:04:15;;;;;;;;;;;25.70;33.00;;;;;;1493699;78;717;-67
2022/08/11 03:06:28;;;;;;;;;;;25.80;33.10;;;;;;1493530;78;1604;-67
2022/08/11 03:08:51;;;;;;;;;;;25.80;33.00;;;;;;1505896;77;711;-68
2022/08/11 03:18:16;;;;;;;;;;;25.70;33.30;;;;;;1509924;77;1704;-67
2022/08/11 03:20:36;;;;;;;;;;;25.70;33.30;;;;;;1521195;77;1537;-68
2022/08/11 03:22:56;;;;;;;;;;;25.70;33.40;;;;;;1527235;77;729;-68
2022/08/11 03:25:16;;;;;;;;;;;25.70;33.40;;;;;;1478878;79;688;-67
2022/08/11 03:27:26;;;;;;;;;;;25.70;33.60;;;;;;1480341;79;751;-67
2022/08/11 03:29:30;;;;;;;;;;;25.70;33.60;;;;;;1477953;79;1931;-68
2022/08/11 03:31:42;;;;;;;;;;;25.70;33.60;;;;;;1474484;79;1154;-68
2022/08/11 03:34:03;;;;;;;;;;;25.70;33.70;;;;;;1474986;79;1657;-68
2022/08/11 03:36:06;;;;;;;;;;;25.70;33.60;;;;;;1485853;79;1233;-68
2022/08/11 03:38:09;;;;;;;;;;;25.70;33.70;;;;;;1478778;79;1351;-67
2022/08/11 03:40:16;;;;;;;;;;;25.70;33.70;;;;;;1484421;79;719;-67
2022/08/11 03:42:22;;;;;;;;;;;25.70;33.80;;;;;;1478205;79;780;-68
2022/08/11 03:44:35;;;;;;;;;;;25.70;33.80;;;;;;1476313;77;1004;-69
2022/08/11 03:46:44;;;;;;;;;;;25.70;33.70;;;;;;1476261;79;761;-68
2022/08/11 03:48:47;;;;;;;;;;;25.70;33.70;;;;;;1478696;79;1536;-69
2022/08/11 03:50:57;;;;;;;;;;;25.70;33.80;;;;;;1481931;79;2005;-69
2022/08/11 03:53:06;;;;;;;;;;;25.70;33.70;;;;;;1477685;79;1172;-69
2022/08/11 03:55:10;;;;;;;;;;;25.70;33.70;;;;;;1476288;79;1131;-69
2022/08/11 03:57:22;;;;;;;;;;;25.70;33.80;;;;;;1483950;79;801;-69
2022/08/11 03:59:42;;;;;;;;;;;25.70;33.80;;;;;;1482784;79;1801;-69
2022/08/11 04:01:46;;;;;;;;;;;25.70;33.90;;;;;;1471025;79;1592;-69
2022/08/11 04:03:52;;;;;;;;;;;25.70;33.80;;;;;;1479916;79;1129;-69
2022/08/11 04:06:12;;;;;;;;;;;25.80;33.80;;;;;;1491240;79;723;-69
2022/08/11 04:08:22;;;;;;;;;;;25.70;33.90;;;;;;1489157;79;752;-69
2022/08/11 04:10:25;;;;;;;;;;;25.70;33.90;;;;;;1486089;78;1934;-69
2022/08/11 04:12:29;;;;;;;;;;;25.70;33.90;;;;;;1420216;80;1135;-69
2022/08/11 04:17:17;;;;;;;;;;;25.70;34.00;;;;;;1495308;77;1772;-67
2022/08/11 04:19:23;;;;;;;;;;;25.70;34.00;;;;;;1502042;77;1676;-68
2022/08/11 04:21:43;;;;;;;;;;;25.70;34.10;;;;;;1493204;78;1819;-68
2022/08/11 04:24:08;;;;;;;;;;;25.70;34.10;;;;;;1538680;76;718;-68
2022/08/11 04:26:08;;;;;;;;;;;25.70;34.10;;;;;;1523153;76;1572;-68
2022/08/11 04:28:28;;;;;;;;;;;25.70;34.20;;;;;;1525210;76;812;-68
2022/08/11 04:30:34;;;;;;;;;;;25.70;34.20;;;;;;1503588;77;1921;-68
2022/08/11 04:32:55;;;;;;;;;;;25.70;34.20;;;;;;1541329;76;1855;-69
2022/08/11 04:35:15;;;;;;;;;;;25.70;34.20;;;;;;1516144;76;804;-68
2022/08/11 04:37:33;;;;;;;;;;;25.70;34.30;;;;;;1508815;77;804;-68
2022/08/11 04:39:53;;;;;;;;;;;25.70;34.20;;;;;;1540436;76;690;-69
2022/08/11 04:44:21;;;;;;;;;;;25.70;34.30;;;;;;1539457;76;1675;-69
2022/08/11 04:46:31;;;;;;;;;;;25.70;34.30;;;;;;1543959;76;1906;-69
2022/08/11 05:03:56;;;;;;;;;;;25.70;34.50;;;;;;1540598;76;1683;-68
2022/08/11 05:06:18;;;;;;;;;;;25.60;34.60;;;;;;1540831;76;774;-69
2022/08/11 05:08:22;;;;;;;;;;;25.60;34.60;;;;;;1535989;76;1711;-68
2022/08/11 05:10:28;;;;;;;;;;;25.60;34.70;;;;;;1537494;76;1947;-67
2022/08/11 05:12:34;;;;;;;;;;;25.70;34.70;;;;;;1524423;76;1343;-68
2022/08/11 05:36:03;;;;;;;;;;;25.70;34.70;;;;;;1558698;76;619;-68
2022/08/11 05:56:53;;;;;;;;;;;25.80;34.40;;;;;;1539001;76;1658;-69
2022/08/11 05:58:55;;;;;;;;;;;25.80;34.40;;;;;;1539839;76;1833;-69
2022/08/11 06:00:58;;;;;;;;;;;25.80;34.50;;;;;;1539269;76;1153;-70
2022/08/11 06:03:02;;;;;;;;;;;25.80;34.40;;;;;;1531702;76;840;-69
2022/08/11 06:05:04;;;;;;;;;;;25.70;34.30;;;;;;1538470;76;1154;-69
2022/08/11 06:07:09;;;;;;;;;;;25.80;34.30;;;;;;1503909;77;763;-69
2022/08/11 06:09:13;;;;;;;;;;;25.80;34.30;;;;;;1471122;79;1555;-69
2022/08/11 06:11:15;;;;;;;;;;;25.80;34.30;;;;;;1506130;77;1907;-70
2022/08/11 06:13:16;;;;;;;;;;;25.70;34.40;;;;;;1509537;78;791;-69
2022/08/11 06:15:18;;;;;;;;;;;25.80;34.40;;;;;;1508054;77;799;-69
2022/08/11 06:17:27;;;;;;;;;;;25.90;34.10;;;;;;1505437;78;715;-69
2022/08/11 06:19:33;;;;;;;;;;;25.90;34.10;;;;;;1512388;78;770;-69
2022/08/11 06:21:35;;;;;;;;;;;25.80;34.10;;;;;;1497005;77;1142;-69
2022/08/11 06:23:37;;;;;;;;;;;25.80;34.30;;;;;;1503597;77;1551;-69
2022/08/11 06:25:38;;;;;;;;;;;25.70;34.30;;;;;;1464703;79;695;-69
2022/08/11 06:27:41;;;;;;;;;;;25.70;34.30;;;;;;1502930;77;759;-69
2022/08/11 06:29:48;;;;;;;;;;;25.60;34.40;;;;;;1516400;77;1928;-69
2022/08/11 06:32:02;;;;;;;;;;;25.70;34.40;;;;;;1506712;78;1131;-71
2022/08/11 06:34:05;;;;;;;;;;;25.60;34.50;;;;;;1489553;78;740;-70
2022/08/11 06:36:10;;;;;;;;;;;25.70;34.50;;;;;;1509516;77;1539;-69
2022/08/11 06:38:15;;;;;;;;;;;25.70;34.50;;;;;;1506074;78;1150;-69
2022/08/11 06:40:35;;;;;;;;;;;25.60;34.60;;;;;;1501365;77;1931;-69
2022/08/11 06:42:38;;;;;;;;;;;25.60;34.60;;;;;;1502385;78;775;-69
2022/08/11 06:44:41;;;;;;;;;;;25.60;34.70;;;;;;1484310;79;2404;-69
2022/08/11 06:46:47;;;;;;;;;;;25.60;34.70;;;;;;1552119;76;778;-69
2022/08/11 06:48:49;;;;;;;;;;;25.60;34.70;;;;;;1549586;76;752;-69
2022/08/11 06:51:11;;;;;;;;;;;25.60;34.80;;;;;;1510145;77;1928;-69
2022/08/11 06:53:14;;;;;;;;;;;25.60;34.80;;;;;;1482091;79;1925;-69
2022/08/11 07:02:24;;;;;;;;;;;25.50;34.90;;;;;;1532485;76;1695;-69
2022/08/11 07:04:31;;;;;;;;;;;25.60;35.00;;;;;;1509641;77;1500;-70
2022/08/11 07:06:37;;;;;;;;;;;25.60;35.00;;;;;;1479489;79;1701;-69
2022/08/11 07:16:06;;;;;;;;;;;25.50;35.00;;;;;;1493412;78;1664;-69
2022/08/11 07:29:57;;;;;;;;;;;25.50;35.10;;;;;;1536525;76;1924;-69
2022/08/11 07:32:02;;;;;;;;;;;25.50;35.20;;;;;;1505799;77;1127;-69
2022/08/11 07:34:10;;;;;;;;;;;25.50;35.10;;;;;;1494803;77;1556;-69
2022/08/11 07:36:12;;;;;;;;;;;25.50;35.20;;;;;;1507650;78;732;-69
2022/08/11 07:38:18;;;;;;;;;;;25.50;35.20;;;;;;1495112;78;805;-70
2022/08/11 07:40:22;;;;;;;;;;;25.50;35.10;;;;;;1501785;78;1888;-69
2022/08/11 07:42:25;;;;;;;;;;;25.60;35.10;;;;;;1497963;78;954;-70
2022/08/11 07:48:10;;;;;;;;;;;25.50;35.10;;;;;;1495067;78;1177;-69
2022/08/11 07:53:30;;;;;;;;;;;25.60;35.30;;;;;;1475579;78;1662;-72
2022/08/11 07:55:33;;;;;;;;;;;25.70;35.20;;;;;;1495132;78;773;-72
2022/08/11 08:18:36;;;;;;;;;;;25.90;34.60;;;;;;1546410;75;1592;-67
2022/08/11 08:20:39;;;;;;;;;;;25.90;34.50;;;;;;1544135;75;1238;-68
2022/08/11 08:22:41;;;;;;;;;;;26.00;34.50;;;;;;1554774;76;720;-67
2022/08/11 08:24:43;;;;;;;;;;;25.90;34.20;;;;;;1554407;75;718;-65
2022/08/11 08:26:57;;;;;;;;;;;25.90;34.40;;;;;;1553942;75;755;-68
2022/08/11 08:31:20;;;;;;;;;;;26.00;35.10;;;;;;1556496;75;1893;-68
2022/08/11 08:33:23;;;;;;;;;;;25.90;34.20;;;;;;1587710;73;732;-67
2022/08/11 08:35:25;;;;;;;;;;;25.90;34.20;;;;;;1584217;74;740;-67
2022/08/11 08:37:27;;;;;;;;;;;25.90;34.40;;;;;;1584685;74;728;-68
2022/08/11 08:39:30;;;;;;;;;;;25.90;34.20;;;;;;1586732;73;705;-68
2022/08/11 08:41:32;;;;;;;;;;;25.90;34.20;;;;;;1579679;73;1189;-68
2022/08/11 08:43:34;;;;;;;;;;;26.00;35.10;;;;;;1587707;74;1426;-68
2022/08/11 08:45:36;;;;;;;;;;;26.00;34.70;;;;;;1586066;74;767;-67
2022/08/11 08:47:39;;;;;;;;;;;26.00;34.60;;;;;;1585254;74;630;-67
2022/08/11 08:49:43;;;;;;;;;;;26.00;34.60;;;;;;1586423;73;760;-67
2022/08/11 08:51:45;;;;;;;;;;;26.00;34.80;;;;;;1581945;73;1942;-67
2022/08/11 08:53:48;;;;;;;;;;;26.00;34.60;;;;;;1586393;74;670;-67
2022/08/11 08:55:50;;;;;;;;;;;26.00;34.70;;;;;;1585725;74;718;-69
2022/08/11 08:57:52;;;;;;;;;;;25.90;34.20;;;;;;1585192;73;1288;-67
2022/08/11 08:59:53;;;;;;;;;;;25.90;34.50;;;;;;1579331;73;710;-67
2022/08/11 09:01:57;;;;;;;;;;;26.00;35.00;;;;;;1592565;73;1131;-68
2022/08/11 09:03:59;;;;;;;;;;;26.00;34.90;;;;;;1582102;74;696;-67
2022/08/11 09:06:01;;;;;;;;;;;26.00;34.60;;;;;;1584962;73;701;-67
2022/08/11 09:08:03;;;;;;;;;;;26.10;34.80;;;;;;1583754;73;717;-69
2022/08/11 09:10:05;;;;;;;;;;;26.00;34.70;;;;;;1584921;74;717;-67
2022/08/11 09:12:08;;;;;;;;;;;26.00;34.80;;;;;;1583287;73;1894;-69
2022/08/11 09:14:09;;;;;;;;;;;26.00;34.80;;;;;;1581857;73;693;-68
2022/08/11 09:16:11;;;;;;;;;;;26.00;34.70;;;;;;1586675;74;793;-68
2022/08/11 09:18:13;;;;;;;;;;;26.10;34.80;;;;;;1585128;74;759;-68
2022/08/11 09:20:20;;;;;;;;;;;26.10;34.70;;;;;;1591758;73;745;-66
2022/08/11 09:27:03;;;;;;;;;;;26.10;34.50;;;;;;1579259;74;1667;-67
2022/08/11 09:29:05;;;;;;;;;;;26.20;34.50;;;;;;1588549;74;1187;-67
2022/08/11 09:31:06;;;;;;;;;;;26.10;34.40;;;;;;1574545;74;1946;-65
2022/08/11 09:33:10;;;;;;;;;;;26.20;34.50;;;;;;1585897;73;724;-66
2022/08/11 09:35:12;;;;;;;;;;;26.10;34.60;;;;;;1581160;73;754;-69
2022/08/11 09:41:55;;;;;;;;;;;26.00;35.20;;;;;;1580595;73;1671;-68
2022/08/11 09:46:17;;;;;;;;;;;26.10;35.50;;;;;;1584256;74;1695;-66
2022/08/11 09:48:19;;;;;;;;;;;26.00;35.80;;;;;;1556912;75;1388;-65
2022/08/11 09:50:21;;;;;;;;;;;26.00;35.50;;;;;;1586019;74;701;-66
2022/08/11 09:52:23;;;;;;;;;;;26.00;35.40;;;;;;1581253;74;1939;-69
2022/08/11 09:54:25;;;;;;;;;;;26.10;35.40;;;;;;1587072;74;1479;-67
2022/08/11 09:58:46;;;;;;;;;;;26.00;35.20;;;;;;1578013;73;1678;-66
2022/08/11 10:00:48;;;;;;;;;;;26.00;35.20;;;;;;1587196;74;1156;-65
2022/08/11 10:02:50;;;;;;;;;;;26.00;34.80;;;;;;1579982;74;728;-65
2022/08/11 10:04:53;;;;;;;;;;;26.10;34.90;;;;;;1574295;73;790;-65
2022/08/11 10:07:01;;;;;;;;;;;26.10;34.80;;;;;;1580943;74;623;-65
2022/08/11 10:09:05;;;;;;;;;;;26.20;34.80;;;;;;1580431;73;738;-65
2022/08/11 10:11:07;;;;;;;;;;;26.10;34.80;;;;;;1578235;74;1912;-66
2022/08/11 10:13:09;;;;;;;;;;;26.20;34.80;;;;;;1582031;74;835;-66
2022/08/11 10:17:32;;;;;;;;;;;26.20;34.70;;;;;;1583220;74;1631;-66
2022/08/11 10:19:39;;;;;;;;;;;26.20;34.70;;;;;;1575886;73;731;-68
2022/08/11 10:21:42;;;;;;;;;;;26.20;34.60;;;;;;1578354;73;1527;-66
2022/08/11 10:28:24;;;;;;;;;;;26.20;34.50;;;;;;1583484;74;1628;-66
2022/08/11 10:35:07;;;;;;;;;;;26.20;34.50;;;;;;1575228;73;795;-67
2022/08/11 10:37:09;;;;;;;;;;;26.20;34.40;;;;;;1586200;74;765;-66
2022/08/11 10:39:15;;;;;;;;;;;26.20;34.40;;;;;;1579842;73;769;-65
2022/08/11 10:43:36;;;;;;;;;;;26.10;34.40;;;;;;1583623;74;1666;-66
2022/08/11 10:48:03;;;;;;;;;;;26.10;34.30;;;;;;1577341;73;1656;-66
2022/08/11 10:59:28;;;;;;;;;;;26.10;34.40;;;;;;1576543;73;1644;-66
2022/08/11 11:01:32;;;;;;;;;;;26.20;34.40;;;;;;1583758;74;1088;-67
2022/08/11 11:03:34;;;;;;;;;;;26.20;34.40;;;;;;1582834;73;1459;-67
2022/08/11 11:05:36;;;;;;;;;;;26.20;34.20;;;;;;1579220;74;717;-67
2022/08/11 11:07:39;;;;;;;;;;;26.20;34.20;;;;;;1583459;74;754;-67
2022/08/11 11:09:46;;;;;;;;;;;26.20;34.20;;;;;;1574353;73;729;-65
2022/08/11 11:18:52;;;;;;;;;;;26.20;34.20;;;;;;1572370;73;1767;-66
2022/08/11 11:21:06;;;;;;;;;;;26.10;34.10;;;;;;1584529;73;1174;-66
2022/08/11 11:23:22;;;;;;;;;;;26.00;34.10;;;;;;1584128;74;1514;-68
2022/08/11 11:25:31;;;;;;;;;;;26.00;34.30;;;;;;1580908;74;570;-67
2022/08/11 11:27:44;;;;;;;;;;;26.10;34.30;;;;;;1576156;73;768;-66
2022/08/11 11:29:56;;;;;;;;;;;26.20;34.20;;;;;;1580424;74;1786;-65
2022/08/11 11:32:17;;;;;;;;;;;26.20;34.10;;;;;;1583733;73;1949;-66
2022/08/11 11:34:37;;;;;;;;;;;26.20;33.90;;;;;;1576907;73;722;-66
2022/08/11 11:36:41;;;;;;;;;;;26.10;34.10;;;;;;1585434;74;757;-65
2022/08/11 11:38:43;;;;;;;;;;;26.10;33.90;;;;;;1581556;74;1842;-65
2022/08/11 11:41:23;;;;;;;;;;;26.20;33.90;;;;;;1586744;73;1159;-66
2022/08/11 11:42:50;;;;;;;;;;;26.10;33.80;;;;;;1574536;74;1312;-65
2022/08/11 11:44:51;;;;;;;;;;;26.20;33.80;;;;;;1581313;73;2287;-66
2022/08/11 11:46:53;;;;;;;;;;;26.20;33.70;;;;;;1577646;73;1496;-65
2022/08/11 11:48:55;;;;;;;;;;;26.20;33.70;;;;;;1579457;74;805;-65
2022/08/11 11:50:57;;;;;;;;;;;26.20;33.70;;;;;;1576443;74;1175;-65
2022/08/11 11:53:00;;;;;;;;;;;26.20;33.60;;;;;;1579479;74;718;-65
2022/08/11 11:55:02;;;;;;;;;;;26.20;33.70;;;;;;1579997;74;689;-67
2022/08/11 12:01:44;;;;;;;;;;;26.20;33.70;;;;;;1577029;73;1632;-67
2022/08/11 12:03:46;;;;;;;;;;;26.10;33.80;;;;;;1578087;73;775;-67
2022/08/11 12:05:52;;;;;;;;;;;26.20;33.90;;;;;;1586716;74;753;-66
2022/08/11 12:08:15;;;;;;;;;;;26.10;33.80;;;;;;1578652;73;1594;-66
2022/08/11 12:10:14;;;;;;;;;;;26.10;33.90;;;;;;1573359;74;1067;-66
2022/08/11 12:14:36;;;;;;;;;;;26.10;34.00;;;;;;1582547;73;1638;-66
2022/08/11 12:16:41;;;;;;;;;;;26.00;33.90;;;;;;1578099;73;608;-68
2022/08/11 12:18:43;;;;;;;;;;;26.00;34.10;;;;;;1584972;73;775;-66
2022/08/11 12:20:45;;;;;;;;;;;26.10;33.80;;;;;;1558038;75;1343;-66
2022/08/11 12:27:27;;;;;;;;;;;26.10;33.90;;;;;;1583280;74;1671;-68
2022/08/11 12:29:29;;;;;;;;;;;26.10;33.90;;;;;;1583416;74;1603;-68
2022/08/11 12:31:32;;;;;;;;;;;26.20;33.90;;;;;;1583461;73;1940;-65
2022/08/11 12:33:33;;;;;;;;;;;26.10;33.60;;;;;;1581024;74;715;-66
2022/08/11 12:35:35;;;;;;;;;;;26.00;33.90;;;;;;1583403;73;724;-67
2022/08/11 12:37:38;;;;;;;;;;;26.00;34.00;;;;;;1586856;74;791;-66
2022/08/11 12:46:46;;;;;;;;;;;26.00;34.00;;;;;;1572618;74;1651;-66
2022/08/11 12:53:31;;;;;;;;;;;26.10;34.10;;;;;;1577922;74;1666;-66
2022/08/11 13:04:57;;;;;;;;;;;26.00;34.10;;;;;;1572283;73;854;-66
2022/08/11 13:06:58;;;;;;;;;;;26.00;34.20;;;;;;1579515;74;1484;-67
2022/08/11 13:09:00;;;;;;;;;;;26.00;34.20;;;;;;1577745;74;799;-67
2022/08/11 13:13:21;;;;;;;;;;;26.10;33.90;;;;;;1580278;73;1628;-66
2022/08/11 13:15:24;;;;;;;;;;;26.10;33.90;;;;;;1579776;74;678;-66
2022/08/11 13:17:28;;;;;;;;;;;26.00;33.90;;;;;;1573384;74;708;-66
2022/08/11 13:19:29;;;;;;;;;;;26.00;33.90;;;;;;1588497;73;1625;-67
2022/08/11 13:21:31;;;;;;;;;;;26.10;33.90;;;;;;1593070;72;1177;-67
2022/08/11 13:23:34;;;;;;;;;;;26.00;34.00;;;;;;1582127;74;737;-66
2022/08/11 13:25:36;;;;;;;;;;;26.00;34.00;;;;;;1582619;73;1515;-67
2022/08/11 13:27:38;;;;;;;;;;;26.10;33.90;;;;;;1588799;74;585;-67
2022/08/11 13:29:41;;;;;;;;;;;26.10;33.90;;;;;;1591274;74;809;-68
2022/08/11 13:31:43;;;;;;;;;;;26.10;33.70;;;;;;1577814;73;1957;-66
2022/08/11 13:33:45;;;;;;;;;;;26.10;33.90;;;;;;1583345;74;621;-66
2022/08/11 13:35:48;;;;;;;;;;;26.00;34.00;;;;;;1586450;73;716;-67
2022/08/11 13:37:50;;;;;;;;;;;26.10;33.90;;;;;;1591786;73;726;-67
2022/08/11 13:39:52;;;;;;;;;;;26.20;33.80;;;;;;1584352;73;1578;-67
2022/08/11 13:41:55;;;;;;;;;;;26.20;33.60;;;;;;1586195;74;1136;-67
2022/08/11 13:43:57;;;;;;;;;;;26.20;33.50;;;;;;1581324;73;716;-66
2022/08/11 13:48:19;;;;;;;;;;;26.00;33.70;;;;;;1581153;73;1680;-66
2022/08/11 13:51:29;;;;;;;;;;;26.00;33.90;;;;;;1583605;73;817;-67
2022/08/11 13:52:25;;;;;;;;;;;26.00;33.90;;;;;;1569232;74;1951;-67
2022/08/11 13:54:29;;;;;;;;;;;26.00;33.70;;;;;;1580666;74;717;-66
2022/08/11 13:56:31;;;;;;;;;;;26.00;33.90;;;;;;1584598;74;782;-67
2022/08/11 13:58:33;;;;;;;;;;;25.90;33.20;;;;;;1578178;74;766;-64
2022/08/11 14:00:35;;;;;;;;;;;26.00;34.00;;;;;;1584052;73;672;-66
2022/08/11 14:02:38;;;;;;;;;;;26.00;33.80;;;;;;1576392;74;712;-67
2022/08/11 14:04:42;;;;;;;;;;;26.00;33.90;;;;;;1579275;74;1238;-66
2022/08/11 14:06:44;;;;;;;;;;;26.00;33.80;;;;;;1580314;74;1693;-66
2022/08/11 14:08:46;;;;;;;;;;;26.20;33.80;;;;;;1577814;74;710;-66
2022/08/11 14:13:36;;;;;;;;;;;26.10;33.70;;;;;;1582175;74;1139;-66
2022/08/11 14:15:18;;;;;;;;;;;26.00;33.70;;;;;;1553922;74;1717;-58
2022/08/11 14:17:21;;;;;;;;;;;25.90;33.30;;;;;;1532324;76;781;-58
2022/08/11 14:19:23;;;;;;;;;;;26.00;33.80;;;;;;1559521;74;721;-58
2022/08/11 14:23:46;;;;;;;;;;;26.00;33.50;;;;;;1551967;74;1676;-58
2022/08/11 14:28:07;;;;;;;;;;;25.90;33.00;;;;;;1558387;74;1648;-58
2022/08/11 14:30:53;;;;;;;;;;;26.00;33.80;;;;;;1563285;74;752;-58
2022/08/11 14:32:13;;;;;;;;;;;26.10;33.70;;;;;;1540840;74;1944;-58
2022/08/11 14:34:15;;;;;;;;;;;26.10;33.50;;;;;;1547277;74;1474;-58
2022/08/11 14:36:17;;;;;;;;;;;26.00;33.30;;;;;;1558468;74;650;-57
2022/08/11 14:38:19;;;;;;;;;;;26.00;33.20;;;;;;1554367;74;791;-57
2022/08/11 14:47:24;;;;;;;;;;;26.00;33.50;;;;;;1552051;74;1644;-56
2022/08/11 14:49:26;;;;;;;;;;;26.00;33.00;;;;;;1554888;74;1540;-58
2022/08/11 14:51:28;;;;;;;;;;;26.00;32.90;;;;;;1550268;76;796;-59
2022/08/11 14:53:30;;;;;;;;;;;26.00;33.20;;;;;;1547366;74;1946;-57
2022/08/11 14:57:53;;;;;;;;;;;26.20;33.00;;;;;;1551331;74;1667;-58
2022/08/11 14:59:55;;;;;;;;;;;26.10;32.80;;;;;;1547276;74;779;-58
2022/08/11 15:04:16;;;;;;;;;;;26.00;33.10;;;;;;1559800;74;1721;-58
2022/08/11 15:06:18;;;;;;;;;;;26.10;32.80;;;;;;1553053;74;785;-57
2022/08/11 15:08:53;;;;;;;;;;;26.00;32.80;;;;;;1554974;74;817;-58
2022/08/11 15:10:24;;;;;;;;;;;26.10;32.90;;;;;;1550090;74;1456;-57
2022/08/11 15:12:25;;;;;;;;;;;26.10;32.80;;;;;;1555520;74;1930;-58
2022/08/11 15:19:07;;;;;;;;;;;26.10;32.70;;;;;;1555857;74;1665;-58
2022/08/11 15:25:56;;;;;;;;;;;26.20;32.60;;;;;;1559359;74;1640;-58
2022/08/11 15:37:26;;;;;;;;;;;25.90;32.30;;;;;;1559538;74;1676;-56
2022/08/11 15:39:31;;;;;;;;;;;26.00;32.90;;;;;;1555351;74;695;-58
2022/08/11 15:46:16;;;;;;;;;;;25.90;32.20;;;;;;1569078;74;1557;-56
2022/08/11 15:48:19;;;;;;;;;;;25.90;32.40;;;;;;1544731;74;752;-56
2022/08/11 15:50:21;;;;;;;;;;;25.90;32.10;;;;;;1559654;74;792;-58
2022/08/11 15:52:23;;;;;;;;;;;25.90;32.60;;;;;;1552259;74;1954;-56
2022/08/11 15:54:26;;;;;;;;;;;26.00;32.50;;;;;;1554405;76;782;-57
2022/08/11 15:56:28;;;;;;;;;;;26.00;32.60;;;;;;1551790;74;709;-56
2022/08/11 16:05:31;;;;;;;;;;;25.90;31.70;;;;;;1551519;74;1687;-57
2022/08/11 16:07:34;;;;;;;;;;;25.90;31.10;;;;;;1550436;74;785;-58
2022/08/11 16:09:37;;;;;;;;;;;25.80;31.20;;;;;;1555120;74;757;-58
2022/08/11 16:11:39;;;;;;;;;;;25.90;31.80;;;;;;1560224;74;783;-57
2022/08/11 16:18:08;;;;;;;;;;;25.90;31.60;;;;;;1558964;74;1652;-58
2022/08/11 16:20:10;;;;;;;;;;;25.80;31.90;;;;;;1557828;74;915;-58
2022/08/11 16:22:12;;;;;;;;;;;25.90;31.80;;;;;;1558682;74;1153;-58
2022/08/11 16:24:13;;;;;;;;;;;25.80;31.10;;;;;;1556202;74;677;-57
2022/08/11 16:26:16;;;;;;;;;;;25.80;31.50;;;;;;1558750;74;697;-58
2022/08/11 16:28:19;;;;;;;;;;;25.80;31.60;;;;;;1560290;74;1541;-58
2022/08/11 16:30:21;;;;;;;;;;;25.80;31.30;;;;;;1550194;74;754;-58
2022/08/11 16:32:24;;;;;;;;;;;25.80;31.10;;;;;;1560358;74;1944;-58
2022/08/11 16:38:56;;;;;;;;;;;25.80;31.10;;;;;;1554122;74;1670;-58
2022/08/11 16:40:58;;;;;;;;;;;25.80;31.50;;;;;;1552653;74;1443;-57
2022/08/11 16:47:41;;;;;;;;;;;25.70;31.10;;;;;;1555367;74;1671;-58
2022/08/11 16:49:47;;;;;;;;;;;25.80;31.00;;;;;;1557615;74;780;-58
2022/08/11 16:51:48;;;;;;;;;;;25.70;31.20;;;;;;1556012;74;710;-58
2022/08/11 16:53:50;;;;;;;;;;;25.70;30.80;;;;;;1540398;74;1932;-58
2022/08/11 16:55:52;;;;;;;;;;;25.70;31.60;;;;;;1542464;74;1540;-57
2022/08/11 17:00:15;;;;;;;;;;;25.60;31.30;;;;;;1546486;74;1949;-58
2022/08/11 17:14:07;;;;;;;;;;;25.60;31.30;;;;;;1548327;74;1928;-56
2022/08/11 17:16:11;;;;;;;;;;;25.60;31.10;;;;;;1549290;74;708;-57
2022/08/11 17:18:38;;;;;;;;;;;25.70;30.30;;;;;;1557782;74;670;-58
2022/08/11 17:20:18;;;;;;;;;;;25.60;31.00;;;;;;1553269;75;1419;-57
2022/08/11 17:24:44;;;;;;;;;;;25.70;31.30;;;;;;1559262;74;1638;-58
2022/08/11 17:26:56;;;;;;;;;;;25.60;30.70;;;;;;1552592;74;679;-59